createdAt,value
2022-12-13T00:00:39.571Z,12.3
2022-12-13T00:04:40.669Z,12.13
2022-12-13T00:08:40.702Z,11.57
2022-12-13T00:12:40.535Z,9.4
2022-12-13T00:16:40.687Z,9.93
2022-12-13T00:20:40.664Z,11.2
2022-12-13T00:24:45.922Z,10.2
2022-12-13T00:28:40.581Z,10.13
2022-12-13T00:32:40.697Z,9.47
2022-12-13T00:36:40.521Z,11.3
2022-12-13T00:40:40.721Z,10.23
2022-12-13T00:44:40.601Z,10.33
2022-12-13T00:48:40.632Z,10.43
2022-12-13T00:52:40.626Z,10
2022-12-13T00:56:40.659Z,10.67
2022-12-13T01:00:40.611Z,10.2
2022-12-13T01:04:40.472Z,10.2
2022-12-13T01:08:40.494Z,10.67
2022-12-13T01:12:40.732Z,10.8
2022-12-13T01:16:40.335Z,12.03
2022-12-13T01:20:40.540Z,11.27
2022-12-13T01:24:40.488Z,12.17
2022-12-13T01:28:40.646Z,13.37
2022-12-13T01:32:40.656Z,14.1
2022-12-13T01:36:40.437Z,12.33
2022-12-13T01:40:40.574Z,12.7
2022-12-13T01:44:39.938Z,12.37
2022-12-13T01:48:40.913Z,13.93
2022-12-13T01:52:40.449Z,13.3
2022-12-13T01:56:40.576Z,12.07
2022-12-13T02:00:40.860Z,13
2022-12-13T02:04:44.481Z,12.97
2022-12-13T02:08:40.519Z,12.67
2022-12-13T02:12:40.544Z,12.97
2022-12-13T02:16:41.339Z,13.27
2022-12-13T02:20:40.740Z,13.03
2022-12-13T02:24:40.540Z,13
2022-12-13T02:28:41.026Z,13.8
2022-12-13T02:32:40.550Z,12.83
2022-12-13T02:36:40.440Z,13.7
2022-12-13T02:40:40.736Z,12.73
2022-12-13T02:44:40.527Z,12.7
2022-12-13T02:48:40.540Z,13.03
2022-12-13T02:52:40.639Z,12.3
2022-12-13T02:56:40.476Z,11.73
2022-12-13T03:00:40.492Z,12.6
2022-12-13T03:04:41.051Z,12.17
2022-12-13T03:08:40.476Z,12.2
2022-12-13T03:12:40.600Z,11.8
2022-12-13T03:16:40.428Z,10.53
2022-12-13T03:20:40.445Z,11.73
2022-12-13T03:24:40.539Z,10.8
2022-12-13T03:28:40.615Z,11.27
2022-12-13T03:32:40.651Z,12.47
2022-12-13T03:36:40.514Z,10.97
2022-12-13T03:40:40.546Z,11.43
2022-12-13T03:44:40.575Z,10.73
2022-12-13T03:48:40.981Z,12.33
2022-12-13T03:52:40.471Z,12.2
2022-12-13T03:56:41.150Z,11.23
2022-12-13T04:00:40.566Z,12.4
2022-12-13T04:04:39.621Z,10.97
2022-12-13T04:08:40.694Z,12.83
2022-12-13T04:12:43.086Z,10.93
2022-12-13T04:16:40.678Z,13.17
2022-12-13T04:20:40.459Z,13.53
2022-12-13T04:24:40.884Z,11.87
2022-12-13T04:28:40.645Z,13.63
2022-12-13T04:32:40.665Z,11.97
2022-12-13T04:36:40.584Z,11.83
2022-12-13T04:40:40.471Z,11.67
2022-12-13T04:44:44.792Z,11.37
2022-12-13T04:48:40.716Z,8.1
2022-12-13T04:52:41.172Z,11.7
2022-12-13T04:56:40.530Z,11.47
2022-12-13T05:00:40.598Z,12.1
2022-12-13T05:04:40.523Z,11.4
2022-12-13T05:08:40.502Z,10.3
2022-12-13T05:12:40.509Z,12.27
2022-12-13T05:16:39.800Z,11.5
2022-12-13T05:20:41.208Z,13.2
2022-12-13T05:24:40.486Z,12.67
2022-12-13T05:28:40.494Z,10.4
2022-12-13T05:32:44.287Z,12.07
2022-12-13T05:36:41.244Z,12.37
2022-12-13T05:40:40.138Z,10.83
2022-12-13T05:44:40.544Z,11.87
2022-12-13T05:48:40.508Z,12.63
2022-12-13T05:52:40.544Z,11.1
2022-12-13T05:56:40.294Z,12.5
2022-12-13T06:00:40.714Z,11.8
2022-12-13T06:04:40.902Z,10.5
2022-12-13T06:08:40.868Z,12.67
2022-12-13T06:12:43.393Z,10.8
2022-12-13T06:16:40.484Z,12.17
2022-12-13T06:20:40.474Z,11.6
2022-12-13T06:24:40.985Z,12.97
2022-12-13T06:28:40.532Z,10.7
2022-12-13T06:32:43.906Z,10.5
2022-12-13T06:36:40.468Z,9.87
2022-12-13T06:40:40.574Z,10.4
2022-12-13T06:44:39.488Z,11.67
2022-12-13T06:48:40.572Z,10.7
2022-12-13T06:52:40.308Z,11.53
2022-12-13T06:56:40.848Z,11.03
2022-12-13T07:00:48.913Z,12.63
2022-12-13T07:04:40.521Z,11.73
2022-12-13T07:08:40.751Z,11.97
2022-12-13T07:12:40.311Z,11.73
2022-12-13T07:16:41.075Z,9.1
2022-12-13T07:20:41.173Z,12.27
2022-12-13T07:24:40.608Z,10.87
2022-12-13T07:28:40.499Z,13
2022-12-13T07:32:40.632Z,14.07
2022-12-13T07:36:40.443Z,11.2
2022-12-13T07:40:40.723Z,10.33
2022-12-13T07:44:40.478Z,11.27
2022-12-13T07:48:40.441Z,12.27
2022-12-13T07:52:40.752Z,9.67
2022-12-13T07:56:41.143Z,10.13
2022-12-13T08:00:41.292Z,11.53
2022-12-13T08:04:40.585Z,9.3
2022-12-13T08:08:40.595Z,9.07
2022-12-13T08:12:40.771Z,8.97
2022-12-13T08:16:40.639Z,9.53
2022-12-13T08:20:40.612Z,8.87
2022-12-13T08:24:40.550Z,9.6
2022-12-13T08:28:41.263Z,9.1
2022-12-13T08:32:40.923Z,10.1
2022-12-13T08:36:40.722Z,8.9
2022-12-13T08:40:40.560Z,9.17
2022-12-13T08:44:40.493Z,8.47
2022-12-13T08:48:44.398Z,8.43
2022-12-13T08:52:42.076Z,9.1
2022-12-13T08:56:43.604Z,8.67
2022-12-13T09:00:40.670Z,9.03
2022-12-13T09:04:40.740Z,8.33
2022-12-13T09:08:40.527Z,7.87
2022-12-13T09:12:41.720Z,8.17
2022-12-13T09:16:40.656Z,8
2022-12-13T09:20:41.963Z,7.3
2022-12-13T09:24:41.138Z,7.53
2022-12-13T09:28:40.529Z,7.17
2022-12-13T09:32:40.235Z,6.57
2022-12-13T09:36:40.574Z,5.7
2022-12-13T09:40:40.916Z,6.47
2022-12-13T09:44:44.009Z,7.3
2022-12-13T09:48:41.009Z,5.9
2022-12-13T09:52:40.549Z,5.53
2022-12-13T09:56:40.613Z,5.67
2022-12-13T10:00:40.855Z,6.03
2022-12-13T10:04:40.459Z,6.1
2022-12-13T10:08:40.469Z,7.7
2022-12-13T10:12:40.682Z,7.4
2022-12-13T10:16:40.708Z,7.17
2022-12-13T10:20:40.835Z,7.1
2022-12-13T10:24:41.554Z,6.73
2022-12-13T10:28:40.465Z,6.47
2022-12-13T10:32:40.612Z,5.8
2022-12-13T10:36:40.452Z,5.73
2022-12-13T10:40:40.707Z,5.37
2022-12-13T10:44:39.534Z,5.77
2022-12-13T10:48:40.567Z,4.87
2022-12-13T10:52:43.068Z,6.6
2022-12-13T10:56:41.244Z,5.5
2022-12-13T11:00:40.642Z,5.27
2022-12-13T11:04:40.517Z,4.47
2022-12-13T11:08:40.441Z,4.53
2022-12-13T11:12:40.771Z,5
2022-12-13T11:16:40.728Z,4.23
2022-12-13T11:20:40.670Z,4.37
2022-12-13T11:24:40.919Z,4.4
2022-12-13T11:28:41.029Z,4.27
2022-12-13T11:32:40.779Z,4.9
2022-12-13T11:36:40.559Z,4.43
2022-12-13T11:40:40.578Z,4.57
2022-12-13T11:44:44.477Z,4.73
2022-12-13T11:48:41.129Z,4.53
2022-12-13T11:52:40.826Z,4.63
2022-12-13T11:56:40.463Z,4.6
2022-12-13T12:00:41.308Z,5.63
2022-12-13T12:04:40.306Z,4.7
2022-12-13T12:08:40.331Z,5.5
2022-12-13T12:12:40.877Z,5.7
2022-12-13T12:16:40.923Z,5.63
2022-12-13T12:20:40.981Z,5.67
2022-12-13T12:24:40.532Z,5.43
2022-12-13T12:28:43.943Z,4.67
2022-12-13T12:32:41.219Z,5.37
2022-12-13T12:36:40.378Z,4.27
2022-12-13T12:41:14.239Z,5.17
2022-12-13T12:44:40.392Z,5.6
2022-12-13T12:52:40.891Z,5.27
2022-12-13T12:56:40.402Z,4.9
2022-12-13T13:00:40.957Z,5.67
2022-12-13T13:04:41.100Z,5.77
2022-12-13T13:08:40.352Z,5.27
2022-12-13T13:12:43.100Z,5.5
2022-12-13T13:16:40.649Z,5.03
2022-12-13T13:20:43.813Z,5.4
2022-12-13T13:24:40.529Z,5.5
2022-12-13T13:28:40.868Z,5.53
2022-12-13T13:32:40.664Z,5.3
2022-12-13T13:36:40.608Z,6.5
2022-12-13T13:40:40.425Z,6.03
2022-12-13T13:44:40.810Z,6.37
2022-12-13T13:48:40.511Z,5.2
2022-12-13T13:52:40.537Z,4.9
2022-12-13T13:56:40.317Z,6.17
2022-12-13T14:00:40.524Z,6.87
2022-12-13T14:04:40.636Z,5.3
2022-12-13T14:08:40.864Z,6.57
2022-12-13T14:12:40.175Z,6.6
2022-12-13T14:16:40.693Z,5.8
2022-12-13T14:20:40.702Z,6.47
2022-12-13T14:24:40.490Z,5.73
2022-12-13T14:28:40.498Z,6.57
2022-12-13T14:32:40.791Z,5.7
2022-12-13T14:36:42.987Z,5.57
2022-12-13T14:40:40.633Z,5.73
2022-12-13T14:44:40.476Z,5.27
2022-12-13T14:48:40.493Z,7.77
2022-12-13T14:52:41.094Z,6.03
2022-12-13T14:56:40.762Z,7.33
2022-12-13T15:00:40.828Z,7.1
2022-12-13T15:04:40.421Z,6.97
2022-12-13T15:08:40.893Z,6.83
2022-12-13T15:12:40.839Z,7.93
2022-12-13T15:16:39.843Z,7.8
2022-12-13T15:20:40.728Z,8.3
2022-12-13T15:24:40.455Z,7.93
2022-12-13T15:28:40.520Z,7.97
2022-12-13T15:32:40.539Z,8.77
2022-12-13T15:36:40.531Z,9.33
2022-12-13T15:40:41.034Z,9.23
2022-12-13T15:44:40.396Z,8.4
2022-12-13T15:48:40.500Z,9.03
2022-12-13T15:52:40.505Z,9.63
2022-12-13T15:56:40.468Z,9.57
2022-12-13T16:00:40.618Z,9.63
2022-12-13T16:04:40.559Z,7.3
2022-12-13T16:08:40.465Z,8.5
2022-12-13T16:12:40.463Z,8.37
2022-12-13T16:16:40.513Z,9.13
2022-12-13T16:20:40.926Z,8.8
2022-12-13T16:24:40.452Z,10.1
2022-12-13T16:28:40.831Z,9.73
2022-12-13T16:33:17.494Z,10.67
2022-12-13T16:36:40.270Z,11.33
2022-12-13T16:40:40.479Z,9.67
2022-12-13T16:44:40.490Z,10.9
2022-12-13T16:48:41.024Z,9.7
2022-12-13T16:52:40.361Z,10.17
2022-12-13T16:56:40.579Z,12.63
2022-12-13T17:00:39.554Z,10.4
2022-12-13T17:04:41.057Z,12.73
2022-12-13T17:08:40.574Z,12.77
2022-12-13T17:12:40.531Z,12.17
2022-12-13T17:16:41.303Z,9.6
2022-12-13T17:20:40.586Z,9.93
2022-12-13T17:24:40.312Z,10.17
2022-12-13T17:28:40.410Z,9.13
2022-12-13T17:32:40.502Z,8.13
2022-12-13T17:36:40.662Z,9.17
2022-12-13T17:40:40.523Z,9.47
2022-12-13T17:44:40.874Z,8.63
2022-12-13T17:48:41.584Z,9.13
2022-12-13T17:52:40.489Z,8.27
2022-12-13T17:56:40.518Z,9
2022-12-13T18:00:40.647Z,7.7
2022-12-13T18:04:40.494Z,8.3
2022-12-13T18:08:40.615Z,9.1
2022-12-13T18:12:40.439Z,8.47
2022-12-13T18:16:40.597Z,9.1
2022-12-13T18:20:40.828Z,9.2
2022-12-13T18:24:40.719Z,9.2
2022-12-13T18:28:40.871Z,8.77
2022-12-13T18:32:40.573Z,8.87
2022-12-13T18:36:39.328Z,10.3
2022-12-13T18:40:41.154Z,9.7
2022-12-13T18:44:40.881Z,11.1
2022-12-13T18:48:40.560Z,10.83
2022-12-13T18:52:40.290Z,11.03
2022-12-13T18:56:40.292Z,12.87
2022-12-13T19:00:40.602Z,24.1
2022-12-13T19:04:40.862Z,18.9
2022-12-13T19:08:40.470Z,21.2
2022-12-13T19:12:40.541Z,28
2022-12-13T19:16:40.644Z,11.17
2022-12-13T19:20:40.704Z,11.57
2022-12-13T19:24:40.642Z,11.27
2022-12-13T19:28:40.648Z,11.63
2022-12-13T19:32:40.899Z,10.77
2022-12-13T19:36:40.524Z,11.17
2022-12-13T19:40:40.740Z,11.17
2022-12-13T19:44:39.546Z,11.5
2022-12-13T19:48:40.539Z,11.03
2022-12-13T19:52:40.601Z,11.63
2022-12-13T19:56:40.567Z,11.57
2022-12-13T20:00:40.556Z,10.77
2022-12-13T20:04:40.541Z,12.2
2022-12-13T20:08:40.478Z,11.4
2022-12-13T20:12:41.158Z,11.57
2022-12-13T20:16:40.906Z,11.6
2022-12-13T20:21:09.948Z,10.27
2022-12-13T20:24:40.588Z,13.9
2022-12-13T20:28:40.620Z,16.4
2022-12-13T20:32:40.596Z,14.23
2022-12-13T20:36:41.221Z,14.7
2022-12-13T20:40:40.510Z,14.2
2022-12-13T20:44:40.767Z,13.87
2022-12-13T20:48:40.516Z,11.87
2022-12-13T20:52:40.529Z,11.7
2022-12-13T20:56:40.663Z,9.93
2022-12-13T21:00:40.779Z,10.1
2022-12-13T21:04:40.598Z,9.53
2022-12-13T21:08:39.332Z,10.6
2022-12-13T21:12:40.875Z,10.8
2022-12-13T21:16:40.661Z,10.27
2022-12-13T21:20:41.075Z,11.3
2022-12-13T21:24:40.387Z,8.83
2022-12-13T21:28:40.821Z,9.5
2022-12-13T21:32:40.587Z,10.4
2022-12-13T21:36:40.507Z,10.1
2022-12-13T21:40:40.651Z,10.03
2022-12-13T21:44:40.431Z,9.7
2022-12-13T21:48:41.278Z,10.07
2022-12-13T21:52:46.501Z,11.17
2022-12-13T21:56:40.304Z,9.2
2022-12-13T22:00:40.376Z,10.87
2022-12-13T22:04:40.544Z,9.57
2022-12-13T22:08:40.912Z,10.07
2022-12-13T22:12:40.496Z,10.1
2022-12-13T22:16:40.505Z,9.3
2022-12-13T22:20:40.731Z,10.83
2022-12-13T22:24:41.013Z,9.27
2022-12-13T22:28:40.491Z,9.93
2022-12-13T22:32:40.588Z,10.47
2022-12-13T22:36:40.254Z,8.97
2022-12-13T22:40:41.014Z,10.83
2022-12-13T22:44:40.638Z,9.9
2022-12-13T22:48:40.506Z,9.57
2022-12-13T22:52:40.404Z,8.4
2022-12-13T22:56:40.642Z,8.67
2022-12-13T23:00:40.444Z,8.23
2022-12-13T23:04:40.669Z,9.77
2022-12-13T23:08:43.580Z,9.97
2022-12-13T23:12:40.569Z,9.57
2022-12-13T23:16:40.298Z,9.97
2022-12-13T23:20:41.217Z,9.67
2022-12-13T23:24:40.519Z,9.77
2022-12-13T23:28:40.443Z,9.07
2022-12-13T23:32:40.476Z,9.27
2022-12-13T23:36:40.706Z,10.43
2022-12-13T23:40:40.604Z,10.83
2022-12-13T23:44:40.667Z,9.5
2022-12-13T23:48:40.894Z,8.9
2022-12-13T23:52:40.041Z,11.93
2022-12-13T23:56:40.411Z,12.57
